createdAt,value
2022-11-02T00:00:23.932Z,100.00
2022-11-02T00:02:51.306Z,100.00
2022-11-02T00:05:23.897Z,100.00
2022-11-02T00:07:55.362Z,100.00
2022-11-02T00:10:23.809Z,100.00
2022-11-02T00:12:52.326Z,100.00
2022-11-02T00:15:19.824Z,100.00
2022-11-02T00:17:50.436Z,100.00
2022-11-02T00:20:19.423Z,100.00
2022-11-02T00:22:49.911Z,100.00
2022-11-02T00:25:21.497Z,100.00
2022-11-02T00:27:49.096Z,100.00
2022-11-02T00:30:16.685Z,100.00
2022-11-02T00:32:44.123Z,100.00
2022-11-02T00:35:11.713Z,100.00
2022-11-02T00:37:39.105Z,100.00
2022-11-02T00:40:07.114Z,100.00
2022-11-02T00:42:34.478Z,100.00
2022-11-02T00:45:02.211Z,100.00
2022-11-02T00:47:29.613Z,100.00
2022-11-02T00:49:56.946Z,100.00
2022-11-02T00:52:24.598Z,100.00
2022-11-02T00:54:52.942Z,100.00
2022-11-02T00:57:20.393Z,100.00
2022-11-02T00:59:48.176Z,100.00
2022-11-02T01:02:18.113Z,100.00
2022-11-02T01:04:45.504Z,100.00
2022-11-02T01:07:12.824Z,100.00
2022-11-02T01:09:40.269Z,100.00
2022-11-02T01:12:07.974Z,100.00
2022-11-02T01:14:35.837Z,100.00
2022-11-02T01:17:04.743Z,100.00
2022-11-02T01:19:32.458Z,100.00
2022-11-02T01:21:59.867Z,100.00
2022-11-02T01:24:27.790Z,100.00
2022-11-02T01:26:55.199Z,100.00
2022-11-02T01:29:22.477Z,100.00
2022-11-02T01:31:49.938Z,100.00
2022-11-02T01:34:17.737Z,100.00
2022-11-02T01:36:46.593Z,100.00
2022-11-02T01:39:17.359Z,100.00
2022-11-02T01:41:45.583Z,100.00
2022-11-02T01:44:25.395Z,100.00
2022-11-02T01:46:55.413Z,100.00
2022-11-02T01:49:23.571Z,100.00
2022-11-02T01:51:58.772Z,100.00
2022-11-02T01:54:29.770Z,100.00
2022-11-02T01:57:12.803Z,100.00
2022-11-02T01:59:53.898Z,100.00
2022-11-02T02:02:24.571Z,100.00
2022-11-02T02:04:59.330Z,100.00
2022-11-02T02:07:28.164Z,100.00
2022-11-02T02:09:56.722Z,100.00
2022-11-02T02:12:25.451Z,100.00
2022-11-02T02:14:53.700Z,100.00
2022-11-02T02:17:38.128Z,100.00
2022-11-02T02:20:24.711Z,100.00
2022-11-02T02:23:13.859Z,100.00
2022-11-02T02:26:12.116Z,100.00
2022-11-02T02:29:01.108Z,100.00
2022-11-02T02:31:47.089Z,100.00
2022-11-02T02:34:17.265Z,100.00
2022-11-02T02:37:06.946Z,100.00
2022-11-02T02:40:00.431Z,100.00
2022-11-02T02:42:44.097Z,100.00
2022-11-02T02:45:26.526Z,100.00
2022-11-02T02:48:15.067Z,100.00
2022-11-02T02:50:50.877Z,100.00
2022-11-02T02:53:34.180Z,100.00
2022-11-02T02:56:04.550Z,100.00
2022-11-02T02:58:38.853Z,100.00
2022-11-02T03:01:10.989Z,100.00
2022-11-02T03:03:41.727Z,100.00
2022-11-02T03:06:21.224Z,100.00
2022-11-02T03:09:32.736Z,100.00
2022-11-02T03:12:13.137Z,100.00
2022-11-02T03:14:46.573Z,100.00
2022-11-02T03:17:24.627Z,100.00
2022-11-02T03:20:07.612Z,100.00
2022-11-02T03:22:46.109Z,100.00
2022-11-02T03:25:37.383Z,100.00
2022-11-02T03:28:12.666Z,100.00
2022-11-02T03:30:54.419Z,100.00
2022-11-02T03:33:38.818Z,100.00
2022-11-02T03:36:12.848Z,100.00
2022-11-02T03:38:58.998Z,100.00
2022-11-02T03:41:28.371Z,100.00
2022-11-02T03:44:02.838Z,100.00
2022-11-02T03:46:34.297Z,100.00
2022-11-02T03:49:08.592Z,100.00
2022-11-02T03:51:40.999Z,100.00
2022-11-02T03:54:17.499Z,100.00
2022-11-02T03:56:49.835Z,100.00
2022-11-02T03:59:18.089Z,100.00
2022-11-02T04:01:50.446Z,100.00
2022-11-02T04:04:20.071Z,100.00
2022-11-02T04:06:49.138Z,100.00
2022-11-02T04:09:18.352Z,100.00
2022-11-02T04:12:04.632Z,100.00
2022-11-02T04:14:38.752Z,100.00
2022-11-02T04:20:08.517Z,100.00
2022-11-02T04:22:54.477Z,100.00
2022-11-02T04:25:22.277Z,100.00
2022-11-02T04:28:14.768Z,100.00
2022-11-02T04:30:59.892Z,100.00
2022-11-02T04:33:34.385Z,100.00
2022-11-02T04:36:08.397Z,100.00
2022-11-02T04:38:40.288Z,100.00
2022-11-02T04:41:38.123Z,100.00
2022-11-02T04:44:14.614Z,100.00
2022-11-02T04:46:45.374Z,100.00
2022-11-02T04:49:14.671Z,100.00
2022-11-02T04:51:47.306Z,100.00
2022-11-02T04:54:18.701Z,100.00
2022-11-02T04:56:48.048Z,100.00
2022-11-02T04:59:16.643Z,100.00
2022-11-02T05:01:44.111Z,100.00
2022-11-02T05:04:11.606Z,100.00
2022-11-02T05:06:40.082Z,100.00
2022-11-02T05:09:08.899Z,100.00
2022-11-02T05:11:38.537Z,100.00
2022-11-02T05:14:06.694Z,100.00
2022-11-02T05:16:34.219Z,100.00
2022-11-02T05:19:04.530Z,100.00
2022-11-02T05:21:34.620Z,100.00
2022-11-02T05:24:03.960Z,100.00
2022-11-02T05:26:31.670Z,100.00
2022-11-02T05:28:59.498Z,100.00
2022-11-02T05:31:26.841Z,100.00
2022-11-02T05:33:54.136Z,100.00
2022-11-02T05:36:22.865Z,100.00
2022-11-02T05:38:55.723Z,100.00
2022-11-02T05:41:24.217Z,100.00
2022-11-02T05:43:54.673Z,100.00
2022-11-02T05:46:24.005Z,100.00
2022-11-02T05:48:51.306Z,100.00
2022-11-02T05:51:18.621Z,100.00
2022-11-02T05:53:45.950Z,100.00
2022-11-02T05:56:14.592Z,100.00
2022-11-02T05:58:42.366Z,100.00
2022-11-02T06:01:10.597Z,100.00
2022-11-02T06:03:38.400Z,100.00
2022-11-02T06:06:09.661Z,100.00
2022-11-02T06:08:38.895Z,100.00
2022-11-02T06:11:08.321Z,100.00
2022-11-02T06:13:36.698Z,100.00
2022-11-02T06:16:06.323Z,100.00
2022-11-02T06:18:33.687Z,100.00
2022-11-02T06:21:01.425Z,100.00
2022-11-02T06:23:29.695Z,100.00
2022-11-02T06:25:59.677Z,100.00
2022-11-02T06:28:28.166Z,100.00
2022-11-02T06:30:56.330Z,100.00
2022-11-02T06:33:23.914Z,100.00
2022-11-02T06:35:53.405Z,100.00
2022-11-02T06:38:21.216Z,100.00
2022-11-02T06:41:06.727Z,100.00
2022-11-02T06:43:38.276Z,100.00
2022-11-02T06:46:06.392Z,100.00
2022-11-02T06:48:35.621Z,100.00
2022-11-02T06:51:04.581Z,100.00
2022-11-02T06:53:32.096Z,100.00
2022-11-02T06:56:00.059Z,100.00
2022-11-02T06:58:27.629Z,100.00
2022-11-02T07:01:02.193Z,100.00
2022-11-02T07:03:30.672Z,100.00
2022-11-02T07:05:58.011Z,100.00
2022-11-02T07:08:25.743Z,100.00
2022-11-02T07:10:53.465Z,100.00
2022-11-02T07:13:20.788Z,100.00
2022-11-02T07:15:50.893Z,100.00
2022-11-02T07:18:18.204Z,100.00
2022-11-02T07:20:45.565Z,100.00
2022-11-02T07:23:13.194Z,100.00
2022-11-02T07:25:41.529Z,100.00
2022-11-02T07:28:10.012Z,100.00
2022-11-02T07:30:37.517Z,100.00
2022-11-02T07:33:05.246Z,100.00
2022-11-02T07:35:34.227Z,100.00
2022-11-02T07:38:06.816Z,100.00
2022-11-02T07:40:36.250Z,100.00
2022-11-02T07:43:04.705Z,100.00
2022-11-02T07:45:54.446Z,100.00
2022-11-02T07:48:21.810Z,100.00
2022-11-02T07:50:49.161Z,100.00
2022-11-02T07:53:16.535Z,100.00
2022-11-02T07:55:44.139Z,100.00
2022-11-02T07:58:15.236Z,100.00
2022-11-02T08:00:43.289Z,100.00
2022-11-02T08:03:12.260Z,100.00
2022-11-02T08:05:42.806Z,100.00
2022-11-02T08:08:16.028Z,100.00
2022-11-02T08:10:44.610Z,100.00
2022-11-02T08:13:15.111Z,100.00
2022-11-02T08:15:42.616Z,100.00
2022-11-02T08:18:16.284Z,100.00
2022-11-02T08:20:45.840Z,100.00
2022-11-02T08:23:14.389Z,100.00
2022-11-02T08:25:42.436Z,100.00
2022-11-02T08:28:15.294Z,100.00
2022-11-02T08:30:42.822Z,100.00
2022-11-02T08:33:15.452Z,100.00
2022-11-02T08:35:44.717Z,100.00
2022-11-02T08:38:12.630Z,100.00
2022-11-02T08:40:40.364Z,100.00
2022-11-02T08:43:10.167Z,100.00
2022-11-02T08:46:12.505Z,100.00
2022-11-02T08:48:27.671Z,100.00
2022-11-02T08:50:56.312Z,100.00
2022-11-02T08:53:23.740Z,100.00
2022-11-02T08:55:51.167Z,100.00
2022-11-02T08:58:18.708Z,100.00
2022-11-02T09:00:46.291Z,100.00
2022-11-02T09:03:15.723Z,100.00
2022-11-02T09:05:45.734Z,100.00
2022-11-02T09:08:16.943Z,100.00
2022-11-02T09:10:46.160Z,100.00
2022-11-02T09:13:15.223Z,100.00
2022-11-02T09:15:42.825Z,100.00
2022-11-02T09:18:11.199Z,100.00
2022-11-02T09:20:38.911Z,100.00
2022-11-02T09:23:06.396Z,100.00
2022-11-02T09:25:34.289Z,100.00
2022-11-02T09:28:02.280Z,100.00
2022-11-02T09:30:29.793Z,100.00
2022-11-02T09:33:02.472Z,100.00
2022-11-02T09:35:33.858Z,100.00
2022-11-02T09:38:01.567Z,100.00
2022-11-02T09:40:39.984Z,100.00
2022-11-02T09:43:20.911Z,100.00
2022-11-02T09:46:03.298Z,100.00
2022-11-02T09:48:36.728Z,100.00
2022-11-02T09:51:17.826Z,100.00
2022-11-02T09:54:05.394Z,99.26
2022-11-02T09:56:34.862Z,99.05
2022-11-02T09:59:11.656Z,99.15
2022-11-02T10:01:51.887Z,99.20
2022-11-02T10:04:42.967Z,100.00
2022-11-02T10:07:29.656Z,100.00
2022-11-02T10:10:11.293Z,100.00
2022-11-02T10:12:50.487Z,100.00
2022-11-02T10:15:35.450Z,99.93
2022-11-02T10:18:04.824Z,98.23
2022-11-02T10:20:35.729Z,98.83
2022-11-02T10:23:08.757Z,98.45
2022-11-02T10:25:37.573Z,98.19
2022-11-02T10:28:15.515Z,95.06
2022-11-02T10:30:45.302Z,86.71
2022-11-02T10:33:20.342Z,83.68
2022-11-02T10:36:19.335Z,70.16
2022-11-02T10:39:05.492Z,62.68
2022-11-02T10:41:44.525Z,56.76
2022-11-02T10:44:45.131Z,53.39
2022-11-02T10:47:17.673Z,50.93
2022-11-02T10:50:30.329Z,49.11
2022-11-02T10:53:27.475Z,53.72
2022-11-02T10:56:22.316Z,53.98
2022-11-02T10:59:12.661Z,52.69
2022-11-02T11:01:48.131Z,50.49
2022-11-02T11:04:26.943Z,47.09
2022-11-02T11:06:56.674Z,45.66
2022-11-02T11:09:48.321Z,45.68
2022-11-02T11:12:25.915Z,43.23
2022-11-02T11:20:35.534Z,45.04
2022-11-02T11:23:22.766Z,45.47
2022-11-02T11:25:57.763Z,42.34
2022-11-02T11:28:52.576Z,43.46
2022-11-02T11:31:20.684Z,45.89
2022-11-02T11:34:01.718Z,43.00
2022-11-02T11:36:34.598Z,40.80
2022-11-02T11:39:06.928Z,42.03
2022-11-02T11:41:39.640Z,43.95
2022-11-02T11:44:14.563Z,40.99
2022-11-02T11:46:48.719Z,43.21
2022-11-02T11:52:30.912Z,43.58
2022-11-02T11:55:01.621Z,43.16
2022-11-02T12:00:29.104Z,44.63
2022-11-02T12:03:06.606Z,43.31
2022-11-02T12:06:07.065Z,42.47
2022-11-02T12:09:03.154Z,39.90
2022-11-02T12:11:37.907Z,39.02
2022-11-02T12:14:37.647Z,38.98
2022-11-02T12:17:15.392Z,38.07
2022-11-02T12:20:21.017Z,44.05
2022-11-02T12:23:17.801Z,49.45
2022-11-02T12:26:05.897Z,54.82
2022-11-02T12:28:42.507Z,57.11
2022-11-02T12:31:34.632Z,58.46
2022-11-02T12:34:13.280Z,60.19
2022-11-02T12:40:07.724Z,62.83
2022-11-02T12:43:07.614Z,63.03
2022-11-02T12:45:59.836Z,64.25
2022-11-02T12:49:08.241Z,65.33
2022-11-02T12:51:43.163Z,66.14
2022-11-02T12:54:25.193Z,67.41
2022-11-02T12:56:54.600Z,66.76
2022-11-02T12:59:23.895Z,67.17
2022-11-02T13:01:57.597Z,69.52
2022-11-02T13:04:39.709Z,70.00
2022-11-02T13:07:14.567Z,71.66
2022-11-02T13:10:03.312Z,70.79
2022-11-02T13:12:36.224Z,70.91
2022-11-02T13:15:10.870Z,69.71
2022-11-02T13:17:50.005Z,68.53
2022-11-02T13:20:25.884Z,68.04
2022-11-02T13:23:00.814Z,67.26
2022-11-02T13:25:47.788Z,66.19
2022-11-02T13:28:34.093Z,66.47
2022-11-02T13:31:10.071Z,66.43
2022-11-02T13:33:52.386Z,66.44
2022-11-02T13:36:20.038Z,65.65
2022-11-02T13:39:20.949Z,65.43
2022-11-02T13:41:48.359Z,65.38
2022-11-02T13:44:36.573Z,65.19
2022-11-02T13:47:09.047Z,66.07
2022-11-02T13:49:40.350Z,67.14
2022-11-02T13:52:17.769Z,68.01
2022-11-02T13:54:53.507Z,68.62
2022-11-02T13:57:47.779Z,68.24
2022-11-02T14:00:24.371Z,68.76
2022-11-02T14:03:13.316Z,69.19
2022-11-02T14:05:57.467Z,69.92
2022-11-02T14:08:36.313Z,70.48
2022-11-02T14:11:35.940Z,71.26
2022-11-02T14:14:03.242Z,72.29
2022-11-02T14:16:49.115Z,71.13
2022-11-02T14:19:22.525Z,69.38
2022-11-02T14:21:52.706Z,69.61
2022-11-02T14:24:38.242Z,68.71
2022-11-02T14:27:14.760Z,68.29
2022-11-02T14:29:45.264Z,67.62
2022-11-02T14:32:21.424Z,65.68
2022-11-02T14:35:13.655Z,65.70
2022-11-02T14:38:06.143Z,66.00
2022-11-02T14:40:49.690Z,65.79
2022-11-02T14:43:46.549Z,66.41
2022-11-02T14:46:38.461Z,66.51
2022-11-02T14:49:15.716Z,66.17
2022-11-02T14:51:44.238Z,66.36
2022-11-02T14:54:20.374Z,66.59
2022-11-02T14:57:17.039Z,66.91
2022-11-02T14:59:51.369Z,67.86
2022-11-02T15:02:24.623Z,67.92
2022-11-02T15:04:56.257Z,68.43
2022-11-02T15:07:28.890Z,69.04
2022-11-02T15:09:59.591Z,67.36
2022-11-02T15:12:38.638Z,67.41
2022-11-02T15:15:05.956Z,68.03
2022-11-02T15:17:33.659Z,67.70
2022-11-02T15:20:16.345Z,69.08
2022-11-02T15:22:55.245Z,68.55
2022-11-02T15:25:29.471Z,69.22
2022-11-02T15:28:04.492Z,68.42
2022-11-02T15:30:33.173Z,69.17
2022-11-02T15:33:04.526Z,70.04
2022-11-02T15:35:37.806Z,69.98
2022-11-02T15:38:30.398Z,70.25
2022-11-02T15:41:23.044Z,70.77
2022-11-02T15:43:50.640Z,71.17
2022-11-02T15:46:32.325Z,71.03
2022-11-02T15:49:29.571Z,70.28
2022-11-02T15:52:07.689Z,70.95
2022-11-02T15:55:23.414Z,71.14
2022-11-02T15:57:59.987Z,71.52
2022-11-02T16:00:30.405Z,71.55
2022-11-02T16:03:07.162Z,73.65
2022-11-02T16:05:43.939Z,72.56
2022-11-02T16:08:32.326Z,73.76
2022-11-02T16:11:18.449Z,73.29
2022-11-02T16:14:03.820Z,73.77
2022-11-02T16:16:50.108Z,74.27
2022-11-02T16:19:21.703Z,74.47
2022-11-02T16:21:50.125Z,73.54
2022-11-02T16:24:18.769Z,74.38
2022-11-02T16:26:47.853Z,74.67
2022-11-02T16:29:32.293Z,74.83
2022-11-02T16:32:00.344Z,75.34
2022-11-02T16:34:31.611Z,74.50
2022-11-02T16:37:03.774Z,74.81
2022-11-02T16:39:39.636Z,75.42
2022-11-02T16:42:21.601Z,75.45
2022-11-02T16:45:05.069Z,75.84
2022-11-02T16:47:40.020Z,77.32
2022-11-02T16:50:25.387Z,77.66
2022-11-02T16:53:04.108Z,78.16
2022-11-02T16:55:43.282Z,79.52
2022-11-02T16:58:22.507Z,79.84
2022-11-02T17:00:59.575Z,80.84
2022-11-02T17:03:31.707Z,81.47
2022-11-02T17:06:02.888Z,81.85
2022-11-02T17:08:36.775Z,82.33
2022-11-02T17:11:06.847Z,82.67
2022-11-02T17:13:44.597Z,84.96
2022-11-02T17:16:12.871Z,85.92
2022-11-02T17:18:40.335Z,86.16
2022-11-02T17:21:14.027Z,86.19
2022-11-02T17:23:46.832Z,86.69
2022-11-02T17:26:23.353Z,86.97
2022-11-02T17:28:52.795Z,87.98
2022-11-02T17:31:36.008Z,88.60
2022-11-02T17:34:10.163Z,89.55
2022-11-02T17:36:49.094Z,92.23
2022-11-02T17:39:18.225Z,94.14
2022-11-02T17:42:11.579Z,94.46
2022-11-02T17:44:39.662Z,97.48
2022-11-02T17:47:12.507Z,99.67
2022-11-02T17:49:39.990Z,100.00
2022-11-02T17:52:10.568Z,100.00
2022-11-02T17:54:38.178Z,100.00
2022-11-02T17:57:13.417Z,100.00
2022-11-02T17:59:40.992Z,100.00
2022-11-02T18:02:15.729Z,100.00
2022-11-02T18:07:16.044Z,100.00
2022-11-02T18:09:43.471Z,100.00
2022-11-02T18:12:14.798Z,100.00
2022-11-02T18:14:42.610Z,100.00
2022-11-02T18:17:10.183Z,100.00
2022-11-02T18:19:37.598Z,100.00
2022-11-02T18:22:05.016Z,100.00
2022-11-02T18:24:32.443Z,100.00
2022-11-02T18:26:59.819Z,100.00
2022-11-02T18:29:27.104Z,100.00
2022-11-02T18:31:54.592Z,100.00
2022-11-02T18:34:21.998Z,100.00
2022-11-02T18:36:49.345Z,100.00
2022-11-02T18:39:16.733Z,100.00
2022-11-02T18:41:44.104Z,100.00
2022-11-02T18:44:15.126Z,100.00
2022-11-02T18:46:43.121Z,100.00
2022-11-02T18:49:10.601Z,100.00
2022-11-02T18:51:38.041Z,100.00
2022-11-02T18:54:06.651Z,100.00
2022-11-02T18:56:34.285Z,100.00
2022-11-02T18:59:01.896Z,100.00
2022-11-02T19:01:29.436Z,100.00
2022-11-02T19:03:58.819Z,100.00
2022-11-02T19:06:47.093Z,100.00
2022-11-02T19:09:18.713Z,100.00
2022-11-02T19:11:56.878Z,100.00
2022-11-02T19:14:24.900Z,100.00
2022-11-02T19:16:52.601Z,100.00
2022-11-02T19:19:20.372Z,100.00
2022-11-02T19:21:48.620Z,100.00
2022-11-02T19:24:15.984Z,100.00
2022-11-02T19:26:43.406Z,100.00
2022-11-02T19:29:10.757Z,100.00
2022-11-02T19:31:38.333Z,100.00
2022-11-02T19:34:06.262Z,100.00
2022-11-02T19:36:33.895Z,100.00
2022-11-02T19:39:03.398Z,100.00
2022-11-02T19:41:31.839Z,100.00
2022-11-02T19:43:59.436Z,100.00
2022-11-02T19:46:27.431Z,100.00
2022-11-02T19:48:57.085Z,100.00
2022-11-02T19:51:29.866Z,100.00
2022-11-02T19:53:59.881Z,100.00
2022-11-02T19:56:30.128Z,100.00
2022-11-02T19:58:57.869Z,100.00
2022-11-02T20:01:30.958Z,100.00
2022-11-02T20:03:59.106Z,100.00
2022-11-02T20:06:34.219Z,100.00
2022-11-02T20:09:04.358Z,100.00
2022-11-02T20:11:32.156Z,100.00
2022-11-02T20:14:01.635Z,100.00
2022-11-02T20:16:29.486Z,100.00
2022-11-02T20:18:57.802Z,100.00
2022-11-02T20:21:34.475Z,100.00
2022-11-02T20:24:06.375Z,100.00
2022-11-02T20:26:35.973Z,100.00
2022-11-02T20:29:05.378Z,100.00
2022-11-02T20:31:35.807Z,100.00
2022-11-02T20:34:04.699Z,100.00
2022-11-02T20:36:32.181Z,100.00
2022-11-02T20:38:59.712Z,100.00
2022-11-02T20:41:27.129Z,100.00
2022-11-02T20:43:55.715Z,100.00
2022-11-02T20:46:42.624Z,100.00
2022-11-02T20:49:21.873Z,100.00
2022-11-02T20:51:58.677Z,100.00
2022-11-02T20:54:29.451Z,100.00
2022-11-02T20:57:00.484Z,100.00
2022-11-02T20:59:28.077Z,100.00
2022-11-02T21:01:55.593Z,100.00
2022-11-02T21:04:23.430Z,100.00
2022-11-02T21:06:51.737Z,100.00
2022-11-02T21:09:19.657Z,100.00
2022-11-02T21:12:22.359Z,100.00
2022-11-02T21:14:49.809Z,100.00
2022-11-02T21:17:17.528Z,100.00
2022-11-02T21:19:45.052Z,100.00
2022-11-02T21:22:14.791Z,100.00
2022-11-02T21:24:42.345Z,100.00
2022-11-02T21:27:09.759Z,100.00
2022-11-02T21:29:39.591Z,100.00
2022-11-02T21:32:08.258Z,100.00
2022-11-02T21:34:36.079Z,100.00
2022-11-02T21:37:06.907Z,100.00
2022-11-02T21:39:36.129Z,100.00
2022-11-02T21:42:05.007Z,100.00
2022-11-02T21:44:32.419Z,100.00
2022-11-02T21:47:00.105Z,100.00
2022-11-02T21:49:27.640Z,100.00
2022-11-02T21:51:55.027Z,100.00
2022-11-02T21:54:22.604Z,100.00
2022-11-02T21:56:50.495Z,100.00
2022-11-02T21:59:18.103Z,100.00
2022-11-02T22:01:47.256Z,100.00
2022-11-02T22:04:21.752Z,100.00
2022-11-02T22:06:50.033Z,100.00
2022-11-02T22:09:17.848Z,100.00
2022-11-02T22:11:45.542Z,100.00
2022-11-02T22:14:13.515Z,100.00
2022-11-02T22:16:44.263Z,100.00
2022-11-02T22:19:13.647Z,100.00
2022-11-02T22:21:43.864Z,100.00
2022-11-02T22:24:11.776Z,100.00
2022-11-02T22:26:40.049Z,100.00
2022-11-02T22:29:08.475Z,100.00
2022-11-02T22:31:38.931Z,100.00
2022-11-02T22:34:08.526Z,100.00
2022-11-02T22:36:38.089Z,100.00
2022-11-02T22:39:08.171Z,100.00
2022-11-02T22:41:46.437Z,100.00
2022-11-02T22:44:16.361Z,100.00
2022-11-02T22:46:46.332Z,100.00
2022-11-02T22:49:15.356Z,100.00
2022-11-02T22:51:48.232Z,100.00
2022-11-02T22:54:19.734Z,100.00
2022-11-02T22:56:48.869Z,100.00
2022-11-02T22:59:16.764Z,100.00
2022-11-02T23:01:44.584Z,100.00
2022-11-02T23:04:12.658Z,100.00
2022-11-02T23:06:40.492Z,100.00
2022-11-02T23:09:10.270Z,100.00
2022-11-02T23:11:37.930Z,100.00
2022-11-02T23:14:10.752Z,100.00
2022-11-02T23:16:41.216Z,100.00
2022-11-02T23:19:22.147Z,100.00
2022-11-02T23:22:23.909Z,100.00
2022-11-02T23:25:11.029Z,100.00
2022-11-02T23:28:17.563Z,100.00
2022-11-02T23:31:11.304Z,100.00
2022-11-02T23:33:40.761Z,100.00
2022-11-02T23:36:12.733Z,100.00
2022-11-02T23:39:01.257Z,100.00
2022-11-02T23:41:30.193Z,100.00
2022-11-02T23:44:14.204Z,100.00
2022-11-02T23:46:46.936Z,100.00
2022-11-02T23:49:16.601Z,100.00
2022-11-02T23:52:02.472Z,100.00
2022-11-02T23:54:48.411Z,100.00
2022-11-02T23:57:15.852Z,100.00
2022-11-02T23:59:43.177Z,100.00
